createdAt,value
2023-05-01T00:01:00.980Z,100798.19
2023-05-01T00:02:03.285Z,100796.50
2023-05-01T00:03:05.604Z,100794.22
2023-05-01T00:04:08.143Z,100795.25
2023-05-01T00:05:11.275Z,100794.44
2023-05-01T00:06:13.802Z,100792.75
2023-05-01T00:07:16.632Z,100798.22
2023-05-01T00:08:19.384Z,100798.22
2023-05-01T00:09:21.667Z,100790.22
2023-05-01T00:10:24.016Z,100797.56
2023-05-01T00:11:26.675Z,100795.88
2023-05-01T00:12:29.028Z,100789.56
2023-05-01T00:13:32.370Z,100794.22
2023-05-01T00:14:34.618Z,100792.75
2023-05-01T00:15:37.042Z,100794.63
2023-05-01T00:16:39.415Z,100790.25
2023-05-01T00:17:41.744Z,100791.91
2023-05-01T00:18:44.315Z,100791.91
2023-05-01T00:19:46.649Z,100792.97
2023-05-01T00:20:48.925Z,100788.56
2023-05-01T00:21:52.723Z,100792.34
2023-05-01T00:22:55.654Z,100790.66
2023-05-01T00:23:57.963Z,100787.28
2023-05-01T00:25:00.392Z,100776.31
2023-05-01T00:26:02.885Z,100787.47
2023-05-01T00:27:05.217Z,100780.31
2023-05-01T00:28:07.824Z,100784.13
2023-05-01T00:29:10.133Z,100786.22
2023-05-01T00:30:12.660Z,100780.13
2023-05-01T00:31:14.986Z,100782.00
2023-05-01T00:32:17.489Z,100780.31
2023-05-01T00:33:19.833Z,100782.44
2023-05-01T00:34:22.463Z,100786.22
2023-05-01T00:35:24.812Z,100780.97
2023-05-01T00:36:27.085Z,100778.22
2023-05-01T00:37:29.329Z,100782.25
2023-05-01T00:38:31.839Z,100777.81
2023-05-01T00:39:34.132Z,100784.34
2023-05-01T00:40:45.785Z,100778.25
2023-05-01T00:41:48.202Z,100786.47
2023-05-01T00:42:50.496Z,100783.09
2023-05-01T00:43:52.733Z,100785.00
2023-05-01T00:44:55.006Z,100781.41
2023-05-01T00:45:57.343Z,100774.25
2023-05-01T00:47:02.454Z,100774.44
2023-05-01T00:48:06.040Z,100773.63
2023-05-01T00:49:08.354Z,100777.41
2023-05-01T00:50:11.281Z,100774.88
2023-05-01T00:51:14.162Z,100775.94
2023-05-01T00:52:16.777Z,100775.09
2023-05-01T00:53:19.243Z,100782.47
2023-05-01T00:54:23.326Z,100779.94
2023-05-01T00:55:26.932Z,100773.84
2023-05-01T00:56:32.307Z,100770.25
2023-05-01T00:57:34.759Z,100766.91
2023-05-01T00:58:38.509Z,100777.00
2023-05-01T00:59:41.561Z,100767.31
2023-05-01T01:00:44.453Z,100771.97
2023-05-01T01:01:47.562Z,100762.06
2023-05-01T01:02:50.290Z,100766.06
2023-05-01T01:03:52.772Z,100766.91
2023-05-01T01:04:55.377Z,100768.19
2023-05-01T01:06:08.557Z,100767.53
2023-05-01T01:07:19.447Z,100766.72
2023-05-01T01:08:43.729Z,100769.63
2023-05-01T01:09:52.249Z,100768.16
2023-05-01T01:11:01.837Z,100764.59
2023-05-01T01:12:12.844Z,100771.34
2023-05-01T01:13:27.690Z,100765.22
2023-05-01T01:14:45.695Z,100765.44
2023-05-01T01:15:53.568Z,100764.81
2023-05-01T01:17:10.784Z,100770.28
2023-05-01T01:18:36.654Z,100765.03
2023-05-01T01:19:50.828Z,100769.88
2023-05-01T01:21:12.954Z,100768.38
2023-05-01T01:22:21.315Z,100755.75
2023-05-01T01:24:08.669Z,100756.19
2023-05-01T01:25:30.186Z,100762.72
2023-05-01T01:27:11.494Z,100761.22
2023-05-01T01:28:32.976Z,100764.19
2023-05-01T01:29:57.633Z,100762.72
2023-05-01T01:31:14.078Z,100761.00
2023-05-01T01:33:14.231Z,100755.34
2023-05-01T01:34:33.617Z,100741.03
2023-05-01T01:35:37.109Z,100742.31
2023-05-01T01:36:43.987Z,100743.13
2023-05-01T01:38:00.742Z,100743.34
2023-05-01T01:39:29.171Z,100737.44
2023-05-01T01:40:44.173Z,100744.81
2023-05-01T01:41:50.664Z,100735.16
2023-05-01T01:43:03.189Z,100740.63
2023-05-01T01:44:09.160Z,100736.41
2023-05-01T01:45:21.534Z,100739.13
2023-05-01T01:46:25.625Z,100737.44
2023-05-01T01:47:33.349Z,100734.94
2023-05-01T01:48:41.654Z,100738.72
2023-05-01T01:49:48.517Z,100736.19
2023-05-01T01:50:53.637Z,100730.91
2023-05-01T01:51:59.165Z,100740.19
2023-05-01T01:53:02.565Z,100736.78
2023-05-01T01:54:05.744Z,100734.28
2023-05-01T01:55:12.484Z,100730.72
2023-05-01T01:56:15.892Z,100730.91
2023-05-01T01:57:21.019Z,100735.53
2023-05-01T01:58:26.514Z,100730.91
2023-05-01T01:59:33.696Z,100727.53
2023-05-01T02:00:39.597Z,100716.59
2023-05-01T02:01:43.325Z,100723.13
2023-05-01T02:02:48.066Z,100720.59
2023-05-01T02:03:53.429Z,100719.75
2023-05-01T02:04:57.381Z,100713.44
2023-05-01T02:06:00.850Z,100719.13
2023-05-01T02:07:04.602Z,100718.25
2023-05-01T02:08:08.646Z,100712.78
2023-05-01T02:09:12.674Z,100720.38
2023-05-01T02:10:16.351Z,100711.31
2023-05-01T02:11:21.328Z,100717.88
2023-05-01T02:12:27.116Z,100710.69
2023-05-01T02:13:31.634Z,100712.56
2023-05-01T02:14:35.507Z,100712.78
2023-05-01T02:15:40.445Z,100709.22
2023-05-01T02:16:44.187Z,100710.47
2023-05-01T02:17:47.804Z,100708.56
2023-05-01T02:18:50.724Z,100714.25
2023-05-01T02:19:55.658Z,100706.28
2023-05-01T02:20:58.969Z,100710.06
2023-05-01T02:22:03.096Z,100709.22
2023-05-01T02:23:07.991Z,100711.31
2023-05-01T02:24:11.981Z,100707.75
2023-05-01T02:25:15.233Z,100712.34
2023-05-01T02:26:19.035Z,100710.69
2023-05-01T02:27:24.469Z,100715.28
2023-05-01T02:28:30.081Z,100711.94
2023-05-01T02:29:32.366Z,100714.03
2023-05-01T02:30:36.475Z,100714.03
2023-05-01T02:31:38.910Z,100699.72
2023-05-01T02:32:41.529Z,100707.09
2023-05-01T02:33:43.828Z,100703.53
2023-05-01T02:34:46.177Z,100703.72
2023-05-01T02:35:49.787Z,100697.41
2023-05-01T02:36:53.910Z,100695.72
2023-05-01T02:37:56.753Z,100701.41
2023-05-01T02:39:00.229Z,100702.44
2023-05-01T02:40:03.891Z,100698.03
2023-05-01T02:41:08.829Z,100699.91
2023-05-01T02:42:12.883Z,100699.09
2023-05-01T02:43:18.880Z,100698.22
2023-05-01T02:44:22.593Z,100695.72
2023-05-01T02:45:26.069Z,100694.03
2023-05-01T02:46:29.738Z,100689.81
2023-05-01T02:47:37.386Z,100688.97
2023-05-01T02:48:41.300Z,100688.97
2023-05-01T02:49:45.081Z,100687.28
2023-05-01T02:50:49.497Z,100692.97
2023-05-01T02:51:52.579Z,100690.22
2023-05-01T02:52:55.192Z,100696.72
2023-05-01T02:54:13.932Z,100687.72
2023-05-01T02:55:17.614Z,100686.03
2023-05-01T02:56:20.195Z,100689.78
2023-05-01T02:57:23.655Z,100687.06
2023-05-01T02:58:26.411Z,100683.72
2023-05-01T02:59:28.750Z,100680.97
2023-05-01T03:00:31.035Z,100674.88
2023-05-01T03:01:33.923Z,100680.34
2023-05-01T03:02:36.438Z,100679.50
2023-05-01T03:03:38.780Z,100675.06
2023-05-01T03:04:41.219Z,100673.59
2023-05-01T03:05:43.683Z,100681.59
2023-05-01T03:06:46.138Z,100673.59
2023-05-01T03:07:48.657Z,100669.19
2023-05-01T03:08:50.970Z,100667.50
2023-05-01T03:09:53.300Z,100672.94
2023-05-01T03:10:55.614Z,100674.84
2023-05-01T03:11:58.147Z,100669.38
2023-05-01T03:13:00.891Z,100665.84
2023-05-01T03:14:03.204Z,100671.28
2023-05-01T03:15:06.162Z,100665.84
2023-05-01T03:16:08.617Z,100668.75
2023-05-01T03:17:11.020Z,100671.47
2023-05-01T03:18:13.459Z,100663.28
2023-05-01T03:19:15.799Z,100664.97
2023-05-01T03:20:18.213Z,100665.19
2023-05-01T03:21:20.824Z,100658.03
2023-05-01T03:22:23.220Z,100664.34
2023-05-01T03:23:25.995Z,100658.88
2023-05-01T03:24:28.466Z,100656.97
2023-05-01T03:25:30.787Z,100659.94
2023-05-01T03:26:33.326Z,100660.97
2023-05-01T03:27:35.628Z,100659.94
2023-05-01T03:28:37.993Z,100659.94
2023-05-01T03:29:40.310Z,100660.97
2023-05-01T03:30:42.810Z,100659.06
2023-05-01T03:31:45.346Z,100660.13
2023-05-01T03:32:47.900Z,100664.75
2023-05-01T03:33:56.829Z,100663.03
2023-05-01T03:34:59.213Z,100663.91
2023-05-01T03:36:05.829Z,100658.66
2023-05-01T03:37:09.702Z,100658.84
2023-05-01T03:38:13.003Z,100654.25
2023-05-01T03:39:33.823Z,100658.84
2023-05-01T03:40:59.594Z,100648.13
2023-05-01T03:42:07.505Z,100647.28
2023-05-01T03:43:15.602Z,100650.84
2023-05-01T03:44:17.941Z,100647.28
2023-05-01T03:45:20.671Z,100643.91
2023-05-01T03:46:23.765Z,100652.97
2023-05-01T03:47:26.365Z,100648.34
2023-05-01T03:48:28.924Z,100647.50
2023-05-01T03:49:32.012Z,100644.78
2023-05-01T03:50:34.312Z,100649.16
2023-05-01T03:51:37.065Z,100651.91
2023-05-01T03:52:39.410Z,100648.13
2023-05-01T03:53:41.750Z,100651.91
2023-05-01T03:54:45.889Z,100649.16
2023-05-01T03:56:08.597Z,100652.97
2023-05-01T03:57:10.999Z,100656.53
2023-05-01T03:58:13.425Z,100647.50
2023-05-01T03:59:15.899Z,100642.06
2023-05-01T04:00:18.393Z,100652.75
2023-05-01T04:01:22.612Z,100652.53
2023-05-01T04:02:25.164Z,100647.91
2023-05-01T04:03:27.614Z,100659.69
2023-05-01T04:04:30.390Z,100645.84
2023-05-01T04:05:34.350Z,100641.19
2023-05-01T04:06:38.457Z,100642.06
2023-05-01T04:07:42.279Z,100642.06
2023-05-01T04:08:44.732Z,100647.31
2023-05-01T04:09:48.581Z,100638.47
2023-05-01T04:10:51.148Z,100645.41
2023-05-01T04:11:53.561Z,100639.13
2023-05-01T04:12:55.858Z,100641.63
2023-05-01T04:13:58.147Z,100643.31
2023-05-01T04:15:00.752Z,100643.97
2023-05-01T04:16:03.389Z,100635.78
2023-05-01T04:17:06.426Z,100639.13
2023-05-01T04:18:11.771Z,100635.34
2023-05-01T04:19:16.193Z,100635.16
2023-05-01T04:20:20.839Z,100630.50
2023-05-01T04:21:23.302Z,100626.94
2023-05-01T04:22:27.734Z,100628.44
2023-05-01T04:23:30.007Z,100628.00
2023-05-01T04:24:34.671Z,100630.56
2023-05-01T04:25:37.339Z,100623.84
2023-05-01T04:26:45.799Z,100626.34
2023-05-01T04:27:48.209Z,100629.69
2023-05-01T04:28:51.221Z,100623.19
2023-05-01T04:29:58.271Z,100622.16
2023-05-01T04:31:01.091Z,100626.34
2023-05-01T04:32:03.556Z,100624.28
2023-05-01T04:33:11.704Z,100621.09
2023-05-01T04:34:15.235Z,100620.91
2023-05-01T04:35:17.519Z,100611.22
2023-05-01T04:36:20.524Z,100623.41
2023-05-01T04:37:22.859Z,100617.94
2023-05-01T04:38:25.184Z,100617.56
2023-05-01T04:39:30.595Z,100614.38
2023-05-01T04:40:36.125Z,100607.22
2023-05-01T04:41:38.369Z,100613.13
2023-05-01T04:42:41.369Z,100617.09
2023-05-01T04:43:47.238Z,100617.53
2023-05-01T04:44:53.195Z,100620.69
2023-05-01T04:45:57.092Z,100612.69
2023-05-01T04:46:59.475Z,100622.16
2023-05-01T04:48:01.908Z,100608.69
2023-05-01T04:49:04.265Z,100609.94
2023-05-01T04:50:07.137Z,100617.31
2023-05-01T04:51:09.517Z,100613.94
2023-05-01T04:52:12.712Z,100617.72
2023-05-01T04:53:35.367Z,100618.75
2023-05-01T04:54:38.484Z,100617.06
2023-05-01T04:55:40.980Z,100613.44
2023-05-01T04:56:51.360Z,100613.25
2023-05-01T04:57:53.690Z,100615.94
2023-05-01T04:58:56.307Z,100615.91
2023-05-01T05:00:01.487Z,100612.09
2023-05-01T05:01:05.529Z,100620.28
2023-05-01T05:02:08.995Z,100618.56
2023-05-01T05:03:11.412Z,100613.91
2023-05-01T05:04:13.830Z,100615.34
2023-05-01T05:05:16.228Z,100617.22
2023-05-01T05:06:18.540Z,100619.72
2023-05-01T05:07:21.398Z,100609.34
2023-05-01T05:08:42.756Z,100616.84
2023-05-01T05:09:46.118Z,100611.34
2023-05-01T05:10:48.442Z,100611.28
2023-05-01T05:12:11.221Z,100605.53
2023-05-01T05:13:13.891Z,100617.50
2023-05-01T05:14:16.347Z,100608.16
2023-05-01T05:15:18.768Z,100614.69
2023-05-01T05:16:21.094Z,100614.84
2023-05-01T05:17:23.496Z,100608.66
2023-05-01T05:18:25.923Z,100617.06
2023-05-01T05:19:28.244Z,100615.56
2023-05-01T05:20:30.657Z,100599.50
2023-05-01T05:21:33.203Z,100608.72
2023-05-01T05:22:39.013Z,100603.38
2023-05-01T05:23:56.319Z,100607.16
2023-05-01T05:25:04.545Z,100609.44
2023-05-01T05:26:06.960Z,100597.78
2023-05-01T05:27:09.548Z,100610.00
2023-05-01T05:28:11.842Z,100603.19
2023-05-01T05:29:14.617Z,100601.69
2023-05-01T05:30:17.126Z,100591.09
2023-05-01T05:31:20.948Z,100604.34
2023-05-01T05:32:23.927Z,100596.50
2023-05-01T05:33:26.452Z,100600.22
2023-05-01T05:34:28.712Z,100600.63
2023-05-01T05:35:31.386Z,100593.00
2023-05-01T05:36:33.936Z,100602.22
2023-05-01T05:37:36.227Z,100598.56
2023-05-01T05:38:38.897Z,100592.13
2023-05-01T05:39:42.776Z,100593.13
2023-05-01T05:40:45.206Z,100588.38
2023-05-01T05:41:49.419Z,100594.63
2023-05-01T05:42:51.940Z,100593.28
2023-05-01T05:43:55.607Z,100587.44
2023-05-01T05:44:57.965Z,100591.78
2023-05-01T05:46:01.109Z,100591.22
2023-05-01T05:47:04.878Z,100597.00
2023-05-01T05:48:08.671Z,100589.00
2023-05-01T05:49:15.599Z,100587.59
2023-05-01T05:50:17.976Z,100582.56
2023-05-01T05:51:21.856Z,100586.41
2023-05-01T05:52:24.143Z,100590.25
2023-05-01T05:53:28.088Z,100584.38
2023-05-01T05:54:31.530Z,100584.63
2023-05-01T05:55:34.009Z,100582.09
2023-05-01T05:56:40.500Z,100584.50
2023-05-01T05:57:43.254Z,100588.56
2023-05-01T05:58:48.806Z,100581.00
2023-05-01T05:59:51.412Z,100588.91
2023-05-01T06:00:57.546Z,100583.88
2023-05-01T06:02:01.039Z,100587.34
2023-05-01T06:03:07.630Z,100580.88
2023-05-01T06:04:12.088Z,100578.53
2023-05-01T06:05:16.213Z,100587.00
2023-05-01T06:06:19.903Z,100578.38
2023-05-01T06:07:23.250Z,100578.53
2023-05-01T06:08:26.115Z,100580.69
2023-05-01T06:09:28.479Z,100575.59
2023-05-01T06:10:31.693Z,100577.13
2023-05-01T06:11:34.046Z,100573.94
2023-05-01T06:12:37.880Z,100567.19
2023-05-01T06:13:43.599Z,100573.13
2023-05-01T06:14:46.052Z,100571.03
2023-05-01T06:15:49.201Z,100566.75
2023-05-01T06:16:52.072Z,100580.16
2023-05-01T06:17:54.500Z,100567.81
2023-05-01T06:18:57.318Z,100565.25
2023-05-01T06:20:00.840Z,100562.34
2023-05-01T06:21:03.727Z,100565.47
2023-05-01T06:22:07.922Z,100558.94
2023-05-01T06:23:16.600Z,100567.31
2023-05-01T06:24:41.744Z,100556.31
2023-05-01T06:25:45.591Z,100552.78
2023-05-01T06:26:48.243Z,100558.16
2023-05-01T06:27:51.512Z,100549.41
2023-05-01T06:28:56.449Z,100550.03
2023-05-01T06:29:59.539Z,100552.03
2023-05-01T06:31:02.044Z,100553.19
2023-05-01T06:32:08.263Z,100556.28
2023-05-01T06:33:11.051Z,100550.53
2023-05-01T06:34:15.390Z,100554.44
2023-05-01T06:35:23.912Z,100550.66
2023-05-01T06:36:28.094Z,100555.16
2023-05-01T06:37:30.690Z,100550.50
2023-05-01T06:38:33.344Z,100545.63
2023-05-01T06:39:39.278Z,100546.22
2023-05-01T06:40:41.886Z,100538.59
2023-05-01T06:41:47.248Z,100550.84
2023-05-01T06:42:50.282Z,100539.56
2023-05-01T06:43:52.849Z,100541.59
2023-05-01T06:44:55.117Z,100542.78
2023-05-01T06:45:58.187Z,100542.84
2023-05-01T06:47:01.990Z,100546.78
2023-05-01T06:48:04.962Z,100543.84
2023-05-01T06:49:08.088Z,100535.59
2023-05-01T06:50:10.803Z,100537.31
2023-05-01T06:51:16.174Z,100536.28
2023-05-01T06:52:18.908Z,100538.00
2023-05-01T06:53:22.679Z,100528.63
2023-05-01T06:54:24.985Z,100536.47
2023-05-01T06:55:28.453Z,100528.19
2023-05-01T06:56:32.558Z,100526.28
2023-05-01T06:57:34.913Z,100529.09
2023-05-01T06:58:37.619Z,100527.16
2023-05-01T06:59:40.521Z,100532.16
2023-05-01T07:00:42.865Z,100521.94
2023-05-01T07:01:45.486Z,100525.25
2023-05-01T07:02:47.879Z,100522.22
2023-05-01T07:03:50.211Z,100527.50
2023-05-01T07:04:53.466Z,100521.94
2023-05-01T07:05:56.216Z,100521.66
2023-05-01T07:06:58.648Z,100528.84
2023-05-01T07:08:02.082Z,100518.84
2023-05-01T07:09:05.970Z,100513.53
2023-05-01T07:10:08.917Z,100511.81
2023-05-01T07:11:11.227Z,100510.69
2023-05-01T07:12:13.687Z,100515.91
2023-05-01T07:13:17.597Z,100518.38
2023-05-01T07:14:19.848Z,100517.53
2023-05-01T07:15:23.721Z,100515.25
2023-05-01T07:16:25.996Z,100503.25
2023-05-01T07:17:29.728Z,100504.31
2023-05-01T07:18:32.279Z,100508.66
2023-05-01T07:19:34.967Z,100504.44
2023-05-01T07:20:37.213Z,100507.47
2023-05-01T07:21:41.140Z,100503.78
2023-05-01T07:22:43.794Z,100509.53
2023-05-01T07:23:46.550Z,100502.81
2023-05-01T07:24:49.047Z,100511.16
2023-05-01T07:25:52.066Z,100499.41
2023-05-01T07:26:54.302Z,100499.91
2023-05-01T07:27:56.801Z,100502.34
2023-05-01T07:28:59.060Z,100499.88
2023-05-01T07:30:05.310Z,100500.13
2023-05-01T07:31:10.219Z,100489.75
2023-05-01T07:32:12.541Z,100486.91
2023-05-01T07:33:15.066Z,100488.59
2023-05-01T07:34:18.397Z,100490.47
2023-05-01T07:35:20.689Z,100492.94
2023-05-01T07:36:26.659Z,100489.91
2023-05-01T07:37:29.011Z,100492.38
2023-05-01T07:38:31.493Z,100492.63
2023-05-01T07:39:33.771Z,100480.63
2023-05-01T07:40:36.844Z,100486.75
2023-05-01T07:41:39.151Z,100475.84
2023-05-01T07:42:42.095Z,100481.63
2023-05-01T07:43:44.363Z,100478.28
2023-05-01T07:44:47.106Z,100479.03
2023-05-01T07:46:00.653Z,100478.16
2023-05-01T07:47:06.551Z,100478.09
2023-05-01T07:48:08.884Z,100478.03
2023-05-01T07:49:11.176Z,100483.31
2023-05-01T07:50:13.503Z,100475.47
2023-05-01T07:51:15.721Z,100482.94
2023-05-01T07:52:18.070Z,100475.66
2023-05-01T07:53:20.599Z,100469.22
2023-05-01T07:54:23.075Z,100480.31
2023-05-01T07:55:25.512Z,100471.03
2023-05-01T07:56:29.293Z,100478.72
2023-05-01T07:57:33.711Z,100474.41
2023-05-01T07:58:37.844Z,100470.44
2023-05-01T07:59:40.080Z,100470.06
2023-05-01T08:00:45.168Z,100464.09
2023-05-01T08:01:47.592Z,100469.81
2023-05-01T08:02:51.950Z,100474.72
2023-05-01T08:03:54.369Z,100475.47
2023-05-01T08:04:57.271Z,100468.38
2023-05-01T08:05:59.618Z,100465.50
2023-05-01T08:07:01.903Z,100464.00
2023-05-01T08:08:04.430Z,100467.53
2023-05-01T08:09:06.733Z,100466.91
2023-05-01T08:10:09.458Z,100466.50
2023-05-01T08:11:11.889Z,100460.56
2023-05-01T08:12:14.319Z,100464.06
2023-05-01T08:13:16.652Z,100465.22
2023-05-01T08:14:19.592Z,100456.31
2023-05-01T08:15:22.068Z,100462.31
2023-05-01T08:16:24.594Z,100459.13
2023-05-01T08:17:26.903Z,100459.56
2023-05-01T08:18:30.035Z,100461.63
2023-05-01T08:19:33.523Z,100456.25
2023-05-01T08:20:36.699Z,100454.69
2023-05-01T08:21:38.996Z,100452.31
2023-05-01T08:22:41.268Z,100452.78
2023-05-01T08:23:43.491Z,100452.03
2023-05-01T08:24:46.028Z,100457.19
2023-05-01T08:25:51.159Z,100458.16
2023-05-01T08:26:53.484Z,100458.00
2023-05-01T08:27:55.849Z,100460.69
2023-05-01T08:28:58.199Z,100456.44
2023-05-01T08:30:00.630Z,100471.16
2023-05-01T08:31:03.857Z,100459.03
2023-05-01T08:32:06.172Z,100462.34
2023-05-01T08:33:08.586Z,100454.16
2023-05-01T08:34:11.025Z,100457.13
2023-05-01T08:35:13.284Z,100476.00
2023-05-01T08:36:15.665Z,100452.75
2023-05-01T08:37:19.308Z,100447.03
2023-05-01T08:38:21.569Z,100450.84
2023-05-01T08:39:23.846Z,100456.66
2023-05-01T08:40:26.547Z,100455.19
2023-05-01T08:41:29.383Z,100445.91
2023-05-01T08:42:32.350Z,100447.56
2023-05-01T08:43:34.818Z,100453.31
2023-05-01T08:44:41.341Z,100442.97
2023-05-01T08:45:44.738Z,100447.44
2023-05-01T08:46:51.010Z,100456.84
2023-05-01T08:47:55.464Z,100449.25
2023-05-01T08:48:59.635Z,100445.66
2023-05-01T08:50:03.758Z,100452.19
2023-05-01T08:51:06.416Z,100444.31
2023-05-01T08:52:11.731Z,100454.03
2023-05-01T08:53:17.456Z,100443.47
2023-05-01T08:54:21.054Z,100444.31
2023-05-01T08:55:23.676Z,100452.19
2023-05-01T08:56:25.952Z,100450.03
2023-05-01T08:57:30.833Z,100450.34
2023-05-01T08:58:35.624Z,100452.31
2023-05-01T08:59:39.069Z,100446.22
2023-05-01T09:00:42.965Z,100436.44
2023-05-01T09:01:47.401Z,100439.03
2023-05-01T09:02:51.968Z,100441.00
2023-05-01T09:03:55.576Z,100449.72
2023-05-01T09:05:01.221Z,100440.50
2023-05-01T09:06:04.352Z,100434.59
2023-05-01T09:07:07.368Z,100438.19
2023-05-01T09:08:09.672Z,100434.91
2023-05-01T09:09:12.120Z,100433.44
2023-05-01T09:10:17.411Z,100427.31
2023-05-01T09:11:20.524Z,100432.09
2023-05-01T09:12:25.853Z,100428.78
2023-05-01T09:13:28.187Z,100427.44
2023-05-01T09:14:31.818Z,100425.50
2023-05-01T09:15:34.335Z,100432.44
2023-05-01T09:16:36.974Z,100417.91
2023-05-01T09:17:43.083Z,100419.03
2023-05-01T09:18:46.888Z,100431.25
2023-05-01T09:19:50.339Z,100418.44
2023-05-01T09:20:52.901Z,100412.00
2023-05-01T09:21:56.101Z,100415.81
2023-05-01T09:22:59.376Z,100415.50
2023-05-01T09:24:02.915Z,100414.06
2023-05-01T09:25:05.582Z,100401.09
2023-05-01T09:26:08.659Z,100414.13
2023-05-01T09:27:13.471Z,100408.41
2023-05-01T09:28:16.076Z,100413.06
2023-05-01T09:29:38.347Z,100413.25
2023-05-01T09:30:40.772Z,100408.78
2023-05-01T09:31:43.127Z,100413.75
2023-05-01T09:32:45.661Z,100423.47
2023-05-01T09:33:56.374Z,100408.66
2023-05-01T09:35:15.430Z,100410.81
2023-05-01T09:36:18.540Z,100408.53
2023-05-01T09:37:34.293Z,100407.69
2023-05-01T09:38:43.621Z,100405.41
2023-05-01T09:39:46.029Z,100391.06
2023-05-01T09:40:48.667Z,100400.94
2023-05-01T09:41:54.916Z,100397.66
2023-05-01T09:42:57.362Z,100392.53
2023-05-01T09:43:59.844Z,100382.66
2023-05-01T09:45:04.485Z,100385.13
2023-05-01T09:46:12.127Z,100399.81
2023-05-01T09:47:23.125Z,100394.72
2023-05-01T09:48:25.780Z,100390.25
2023-05-01T09:49:48.437Z,100390.44
2023-05-01T09:50:50.697Z,100387.13
2023-05-01T09:51:53.055Z,100395.22
2023-05-01T09:52:55.511Z,100385.66
2023-05-01T09:53:59.692Z,100394.56
2023-05-01T09:55:18.307Z,100379.41
2023-05-01T09:56:22.110Z,100378.78
2023-05-01T09:57:38.482Z,100377.31
2023-05-01T09:58:41.150Z,100382.06
2023-05-01T09:59:43.475Z,100379.28
2023-05-01T10:00:52.097Z,100378.13
2023-05-01T10:01:54.954Z,100373.34
2023-05-01T10:02:57.521Z,100373.03
2023-05-01T10:04:02.561Z,100375.50
2023-05-01T10:05:05.984Z,100369.06
2023-05-01T10:06:10.033Z,100367.09
2023-05-01T10:07:13.862Z,100368.78
2023-05-01T10:08:16.767Z,100357.84
2023-05-01T10:09:28.987Z,100360.66
2023-05-01T10:10:31.437Z,100367.09
2023-05-01T10:11:52.300Z,100362.31
2023-05-01T10:12:55.098Z,100371.56
2023-05-01T10:14:11.476Z,100367.59
2023-05-01T10:15:24.492Z,100356.38
2023-05-01T10:16:30.551Z,100358.38
2023-05-01T10:17:34.213Z,100359.19
2023-05-01T10:18:36.834Z,100358.38
2023-05-01T10:19:39.090Z,100359.72
2023-05-01T10:20:41.507Z,100366.47
2023-05-01T10:21:44.265Z,100356.72
2023-05-01T10:22:46.779Z,100361.84
2023-05-01T10:23:49.131Z,100357.56
2023-05-01T10:24:52.734Z,100341.56
2023-05-01T10:25:56.935Z,100357.22
2023-05-01T10:27:00.238Z,100348.84
2023-05-01T10:28:04.948Z,100354.44
2023-05-01T10:29:07.395Z,100344.19
2023-05-01T10:30:10.464Z,100347.81
2023-05-01T10:31:13.501Z,100331.63
2023-05-01T10:32:16.125Z,100345.97
2023-05-01T10:33:18.662Z,100339.56
2023-05-01T10:34:24.171Z,100334.25
2023-05-01T10:35:38.355Z,100339.69
2023-05-01T10:36:47.625Z,100337.22
2023-05-01T10:37:59.904Z,100331.63
2023-05-01T10:39:02.273Z,100331.44
2023-05-01T10:40:39.981Z,100334.25
2023-05-01T10:42:04.005Z,100338.19
2023-05-01T10:43:16.319Z,100332.56
2023-05-01T10:44:23.697Z,100327.78
2023-05-01T10:45:30.284Z,100321.88
2023-05-01T10:46:32.664Z,100322.03
2023-05-01T10:47:35.497Z,100326.50
2023-05-01T10:48:37.729Z,100328.16
2023-05-01T10:50:12.458Z,100307.72
2023-05-01T10:51:15.928Z,100314.97
2023-05-01T10:52:18.205Z,100313.31
2023-05-01T10:53:20.566Z,100312.81
2023-05-01T10:54:23.960Z,100308.69
2023-05-01T10:55:36.841Z,100306.56
2023-05-01T10:56:39.065Z,100309.34
2023-05-01T10:57:43.915Z,100318.91
2023-05-01T10:58:51.709Z,100315.91
2023-05-01T11:00:00.481Z,100308.97
2023-05-01T11:01:28.196Z,100295.91
2023-05-01T11:02:31.044Z,100296.56
2023-05-01T11:03:33.541Z,100294.09
2023-05-01T11:04:48.639Z,100293.91
2023-05-01T11:06:00.149Z,100295.06
2023-05-01T11:07:06.008Z,100282.03
2023-05-01T11:08:34.091Z,100293.56
2023-05-01T11:09:40.403Z,100282.66
2023-05-01T11:11:35.194Z,100283.50
2023-05-01T11:12:49.341Z,100286.63
2023-05-01T11:14:04.390Z,100269.84
2023-05-01T11:15:08.497Z,100274.59
2023-05-01T11:16:42.383Z,100280.47
2023-05-01T11:17:45.775Z,100274.88
2023-05-01T11:18:48.228Z,100274.06
2023-05-01T11:19:52.633Z,100272.94
2023-05-01T11:20:55.083Z,100269.84
2023-05-01T11:21:57.583Z,100268.66
2023-05-01T11:22:59.880Z,100265.56
2023-05-01T11:24:05.426Z,100257.66
2023-05-01T11:25:28.033Z,100271.84
2023-05-01T11:26:32.476Z,100269.03
2023-05-01T11:27:35.125Z,100267.56
2023-05-01T11:28:42.187Z,100264.44
2023-05-01T11:29:46.367Z,100257.38
2023-05-01T11:30:49.318Z,100255.09
2023-05-01T11:31:52.364Z,100247.16
2023-05-01T11:32:54.935Z,100268.75
2023-05-01T11:33:58.698Z,100252.44
2023-05-01T11:35:01.160Z,100260.22
2023-05-01T11:36:05.143Z,100251.81
2023-05-01T11:37:07.478Z,100255.44
2023-05-01T11:38:19.515Z,100256.28
2023-05-01T11:39:22.366Z,100244.22
2023-05-01T11:40:33.126Z,100237.16
2023-05-01T11:41:35.547Z,100241.28
2023-05-01T11:42:38.517Z,100237.34
2023-05-01T11:43:58.642Z,100235.06
2023-05-01T11:45:13.467Z,100228.59
2023-05-01T11:46:24.117Z,100231.91
2023-05-01T11:47:26.712Z,100220.06
2023-05-01T11:48:30.399Z,100222.38
2023-05-01T11:49:32.926Z,100228.78
2023-05-01T11:50:39.202Z,100223.19
2023-05-01T11:51:41.678Z,100226.47
2023-05-01T11:52:45.111Z,100220.06
2023-05-01T11:54:03.888Z,100214.78
2023-05-01T11:55:07.415Z,100211.97
2023-05-01T11:57:27.896Z,100208.66
2023-05-01T11:58:32.923Z,100208.66
2023-05-01T11:59:35.234Z,100203.91
2023-05-01T12:00:42.187Z,100196.66
2023-05-01T12:01:46.550Z,100197.47
2023-05-01T12:03:10.401Z,100191.38
2023-05-01T12:04:22.882Z,100198.47
2023-05-01T12:05:26.878Z,100192.84
2023-05-01T12:06:43.920Z,100182.47
2023-05-01T12:07:46.665Z,100179.66
2023-05-01T12:08:51.586Z,100174.91
2023-05-01T12:09:54.138Z,100170.44
2023-05-01T12:10:57.567Z,100166.50
2023-05-01T12:12:03.999Z,100161.72
2023-05-01T12:13:08.697Z,100160.56
2023-05-01T12:14:14.194Z,100165.84
2023-05-01T12:15:22.730Z,100164.50
2023-05-01T12:16:27.894Z,100161.19
2023-05-01T12:17:31.071Z,100162.84
2023-05-01T12:18:33.689Z,100150.50
2023-05-01T12:19:48.957Z,100165.03
2023-05-01T12:20:53.326Z,100162.03
2023-05-01T12:22:11.104Z,100159.25
2023-05-01T12:23:18.652Z,100157.91
2023-05-01T12:24:21.200Z,100154.47
2023-05-01T12:25:30.366Z,100157.25
2023-05-01T12:26:32.829Z,100147.19